createdAt,value
2018-05-03T00:00:45.658Z,1004.75
2018-05-03T00:01:45.643Z,1004.82
2018-05-03T00:02:45.621Z,1004.77
2018-05-03T00:03:45.607Z,1004.78
2018-05-03T00:04:45.600Z,1004.74
2018-05-03T00:05:45.566Z,1004.78
2018-05-03T00:06:45.546Z,1004.72
2018-05-03T00:07:45.524Z,1004.74
2018-05-03T00:08:45.507Z,1004.78
2018-05-03T00:09:45.492Z,1004.73
2018-05-03T00:10:45.465Z,1004.74
2018-05-03T00:11:45.455Z,1004.71
2018-05-03T00:12:45.426Z,1004.74
2018-05-03T00:13:45.405Z,1004.72
2018-05-03T00:14:45.400Z,1004.75
2018-05-03T00:15:45.374Z,1004.74
2018-05-03T00:16:45.352Z,1004.71
2018-05-03T00:17:45.341Z,1004.70
2018-05-03T00:18:45.321Z,1004.68
2018-05-03T00:19:45.292Z,1004.67
2018-05-03T00:20:45.269Z,1004.72
2018-05-03T00:21:45.269Z,1004.69
2018-05-03T00:22:45.236Z,1004.72
2018-05-03T00:23:45.214Z,1004.74
2018-05-03T00:24:45.195Z,1004.74
2018-05-03T00:25:45.174Z,1004.73
2018-05-03T00:26:45.155Z,1004.74
2018-05-03T00:27:45.134Z,1004.75
2018-05-03T00:28:45.115Z,1004.72
2018-05-03T00:29:45.099Z,1004.72
2018-05-03T00:30:45.075Z,1004.75
2018-05-03T00:31:45.056Z,1004.72
2018-05-03T00:32:45.039Z,1004.75
2018-05-03T00:33:45.019Z,1004.79
2018-05-03T00:34:44.995Z,1004.69
2018-05-03T00:35:44.980Z,1004.76
2018-05-03T00:36:44.962Z,1004.73
2018-05-03T00:37:44.940Z,1004.77
2018-05-03T00:38:44.920Z,1004.75
2018-05-03T00:39:44.900Z,1004.76
2018-05-03T00:40:44.884Z,1004.77
2018-05-03T00:41:44.862Z,1004.79
2018-05-03T00:42:44.841Z,1004.80
2018-05-03T00:43:44.822Z,1004.83
2018-05-03T00:44:44.802Z,1004.83
2018-05-03T00:45:44.786Z,1004.80
2018-05-03T00:46:44.763Z,1004.84
2018-05-03T00:47:44.743Z,1004.84
2018-05-03T00:48:44.723Z,1004.80
2018-05-03T00:49:44.704Z,1004.81
2018-05-03T00:50:44.685Z,1004.83
2018-05-03T00:51:44.666Z,1004.82
2018-05-03T00:52:44.649Z,1004.81
2018-05-03T00:53:44.628Z,1004.86
2018-05-03T00:54:44.607Z,1004.90
2018-05-03T00:55:44.587Z,1004.90
2018-05-03T00:56:44.567Z,1004.92
2018-05-03T00:57:44.550Z,1004.92
2018-05-03T00:58:44.533Z,1004.91
2018-05-03T00:59:44.507Z,1004.92
2018-05-03T01:00:44.493Z,1004.92
2018-05-03T01:01:44.471Z,1004.92
2018-05-03T01:02:44.449Z,1004.95
2018-05-03T01:03:44.439Z,1004.91
2018-05-03T01:04:44.411Z,1004.91
2018-05-03T01:05:44.388Z,1004.91
2018-05-03T01:06:44.373Z,1004.91
2018-05-03T01:07:44.349Z,1004.93
2018-05-03T01:08:44.333Z,1004.95
2018-05-03T01:09:44.312Z,1004.97
2018-05-03T01:10:44.291Z,1004.97
2018-05-03T01:11:44.272Z,1005.00
2018-05-03T01:12:44.263Z,1005.03
2018-05-03T01:13:44.240Z,1005.00
2018-05-03T01:14:44.216Z,1004.98
2018-05-03T01:15:44.197Z,1004.98
2018-05-03T01:16:44.177Z,1004.99
2018-05-03T01:17:44.156Z,1005.02
2018-05-03T01:18:44.133Z,1005.06
2018-05-03T01:19:44.136Z,1005.14
2018-05-03T01:20:44.096Z,1005.19
2018-05-03T01:21:44.090Z,1005.22
2018-05-03T01:22:44.057Z,1005.17
2018-05-03T01:23:44.040Z,1005.20
2018-05-03T01:24:44.042Z,1005.17
2018-05-03T01:25:44.017Z,1005.24
2018-05-03T01:26:43.980Z,1005.30
2018-05-03T01:27:43.958Z,1005.35
2018-05-03T01:28:43.937Z,1005.37
2018-05-03T01:29:43.920Z,1005.39
2018-05-03T01:30:43.902Z,1005.32
2018-05-03T01:31:43.883Z,1005.31
2018-05-03T01:32:43.861Z,1005.29
2018-05-03T01:33:43.850Z,1005.31
2018-05-03T01:34:43.820Z,1005.32
2018-05-03T01:35:43.798Z,1005.40
2018-05-03T01:36:43.779Z,1005.43
2018-05-03T01:37:43.762Z,1005.39
2018-05-03T01:38:43.740Z,1005.39
2018-05-03T01:39:43.726Z,1005.36
2018-05-03T01:40:43.700Z,1005.41
2018-05-03T01:41:43.684Z,1005.35
2018-05-03T01:42:43.661Z,1005.43
2018-05-03T01:43:43.642Z,1005.42
2018-05-03T01:44:43.621Z,1005.45
2018-05-03T01:45:43.600Z,1005.46
2018-05-03T01:46:43.580Z,1005.46
2018-05-03T01:47:43.562Z,1005.50
2018-05-03T01:48:43.542Z,1005.46
2018-05-03T01:49:43.522Z,1005.49
2018-05-03T01:50:43.501Z,1005.47
2018-05-03T01:51:43.479Z,1005.51
2018-05-03T01:52:43.462Z,1005.50
2018-05-03T01:53:43.441Z,1005.54
2018-05-03T01:54:43.421Z,1005.54
2018-05-03T01:55:43.403Z,1005.53
2018-05-03T01:56:43.385Z,1005.60
2018-05-03T01:57:43.368Z,1005.62
2018-05-03T01:58:43.340Z,1005.66
2018-05-03T01:59:43.322Z,1005.63
2018-05-03T02:00:43.302Z,1005.64
2018-05-03T02:01:43.281Z,1005.64
2018-05-03T02:02:43.261Z,1005.63
2018-05-03T02:03:43.256Z,1005.63
2018-05-03T02:04:43.230Z,1005.64
2018-05-03T02:05:43.206Z,1005.64
2018-05-03T02:06:43.182Z,1005.62
2018-05-03T02:07:43.168Z,1005.62
2018-05-03T02:08:43.143Z,1005.63
2018-05-03T02:09:43.128Z,1005.63
2018-05-03T02:10:43.102Z,1005.61
2018-05-03T02:11:43.084Z,1005.63
2018-05-03T02:12:43.063Z,1005.67
2018-05-03T02:13:43.043Z,1005.68
2018-05-03T02:14:43.022Z,1005.68
2018-05-03T02:15:43.001Z,1005.69
2018-05-03T02:16:42.986Z,1005.68
2018-05-03T02:17:42.964Z,1005.72
2018-05-03T02:18:42.939Z,1005.73
2018-05-03T02:19:42.921Z,1005.78
2018-05-03T02:20:42.901Z,1005.76
2018-05-03T02:21:42.883Z,1005.78
2018-05-03T02:22:42.866Z,1005.77
2018-05-03T02:23:42.852Z,1005.82
2018-05-03T02:24:42.832Z,1005.84
2018-05-03T02:25:42.824Z,1005.86
2018-05-03T02:26:42.792Z,1005.91
2018-05-03T02:27:42.767Z,1005.94
2018-05-03T02:28:42.738Z,1005.96
2018-05-03T02:29:42.725Z,1005.97
2018-05-03T02:30:42.698Z,1005.98
2018-05-03T02:31:42.702Z,1006.00
2018-05-03T02:32:42.659Z,1006.01
2018-05-03T02:33:42.638Z,1006.04
2018-05-03T02:34:42.628Z,1006.09
2018-05-03T02:35:42.600Z,1006.08
2018-05-03T02:36:42.578Z,1006.14
2018-05-03T02:37:42.560Z,1006.13
2018-05-03T02:38:42.559Z,1006.15
2018-05-03T02:39:42.518Z,1006.15
2018-05-03T02:40:42.499Z,1006.14
2018-05-03T02:41:42.480Z,1006.13
2018-05-03T02:42:42.456Z,1006.15
2018-05-03T02:43:42.435Z,1006.09
2018-05-03T02:44:42.429Z,1006.10
2018-05-03T02:45:42.400Z,1006.15
2018-05-03T02:46:42.375Z,1006.15
2018-05-03T02:47:42.360Z,1006.19
2018-05-03T02:48:42.336Z,1006.26
2018-05-03T02:49:42.318Z,1006.25
2018-05-03T02:50:42.293Z,1006.26
2018-05-03T02:51:42.273Z,1006.23
2018-05-03T02:52:42.260Z,1006.24
2018-05-03T02:53:42.233Z,1006.30
2018-05-03T02:54:42.229Z,1006.29
2018-05-03T02:55:42.192Z,1006.31
2018-05-03T02:56:42.170Z,1006.35
2018-05-03T02:57:42.154Z,1006.37
2018-05-03T02:58:42.134Z,1006.40
2018-05-03T02:59:42.110Z,1006.48
2018-05-03T03:00:42.091Z,1006.48
2018-05-03T03:01:42.071Z,1006.46
2018-05-03T03:02:42.053Z,1006.47
2018-05-03T03:03:42.034Z,1006.48
2018-05-03T03:04:42.020Z,1006.53
2018-05-03T03:05:41.994Z,1006.48
2018-05-03T03:06:41.968Z,1006.56
2018-05-03T03:07:41.951Z,1006.55
2018-05-03T03:08:41.937Z,1006.55
2018-05-03T03:09:41.929Z,1006.56
2018-05-03T03:10:41.896Z,1006.59
2018-05-03T03:11:41.884Z,1006.58
2018-05-03T03:12:41.860Z,1006.57
2018-05-03T03:13:41.828Z,1006.59
2018-05-03T03:14:41.808Z,1006.64
2018-05-03T03:15:41.799Z,1006.62
2018-05-03T03:16:41.769Z,1006.70
2018-05-03T03:17:41.749Z,1006.71
2018-05-03T03:18:41.729Z,1006.76
2018-05-03T03:19:41.708Z,1006.77
2018-05-03T03:20:41.688Z,1006.77
2018-05-03T03:21:41.670Z,1006.74
2018-05-03T03:22:41.723Z,1006.75
2018-05-03T03:23:41.661Z,1006.76
2018-05-03T03:24:41.608Z,1006.78
2018-05-03T03:25:41.644Z,1006.79
2018-05-03T03:26:41.593Z,1006.81
2018-05-03T03:27:41.547Z,1006.80
2018-05-03T03:28:41.535Z,1006.78
2018-05-03T03:29:41.514Z,1006.78
2018-05-03T03:30:41.507Z,1006.77
2018-05-03T03:31:41.512Z,1006.82
2018-05-03T03:32:41.453Z,1006.82
2018-05-03T03:33:41.434Z,1006.84
2018-05-03T03:34:41.409Z,1006.87
2018-05-03T03:35:41.393Z,1006.86
2018-05-03T03:36:41.383Z,1006.85
2018-05-03T03:37:41.370Z,1006.86
2018-05-03T03:38:41.353Z,1006.89
2018-05-03T03:39:41.311Z,1006.92
2018-05-03T03:40:41.293Z,1006.96
2018-05-03T03:41:41.273Z,1006.92
2018-05-03T03:42:41.287Z,1006.99
2018-05-03T03:43:41.236Z,1006.98
2018-05-03T03:44:41.260Z,1006.94
2018-05-03T03:45:41.195Z,1006.95
2018-05-03T03:46:41.173Z,1006.95
2018-05-03T03:47:41.150Z,1006.94
2018-05-03T03:48:41.173Z,1006.97
2018-05-03T03:49:41.111Z,1006.95
2018-05-03T03:50:41.094Z,1006.97
2018-05-03T03:51:41.110Z,1006.97
2018-05-03T03:52:41.075Z,1007.01
2018-05-03T03:53:41.053Z,1007.00
2018-05-03T03:54:41.031Z,1007.04
2018-05-03T03:55:41.013Z,1007.00
2018-05-03T03:56:40.973Z,1007.04
2018-05-03T03:57:40.968Z,1007.06
2018-05-03T03:58:40.945Z,1007.09
2018-05-03T03:59:40.914Z,1007.10
2018-05-03T04:00:40.899Z,1007.10
2018-05-03T04:01:40.878Z,1007.11
2018-05-03T04:02:40.888Z,1007.09
2018-05-03T04:03:40.847Z,1007.16
2018-05-03T04:04:40.828Z,1007.12
2018-05-03T04:05:40.801Z,1007.13
2018-05-03T04:06:40.780Z,1007.16
2018-05-03T04:07:40.768Z,1007.18
2018-05-03T04:08:40.751Z,1007.16
2018-05-03T04:09:40.717Z,1007.20
2018-05-03T04:10:40.694Z,1007.19
2018-05-03T04:11:40.677Z,1007.19
2018-05-03T04:12:40.654Z,1007.18
2018-05-03T04:13:40.637Z,1007.18
2018-05-03T04:14:40.614Z,1007.20
2018-05-03T04:15:40.594Z,1007.24
2018-05-03T04:16:40.603Z,1007.26
2018-05-03T04:17:40.559Z,1007.31
2018-05-03T04:18:40.537Z,1007.31
2018-05-03T04:19:40.515Z,1007.31
2018-05-03T04:20:40.497Z,1007.34
2018-05-03T04:21:40.485Z,1007.31
2018-05-03T04:22:40.456Z,1007.32
2018-05-03T04:23:40.440Z,1007.35
2018-05-03T04:24:40.477Z,1007.36
2018-05-03T04:25:40.464Z,1007.35
2018-05-03T04:26:40.492Z,1007.36
2018-05-03T04:27:41.944Z,1007.39
2018-05-03T04:28:40.387Z,1007.37
2018-05-03T04:29:40.622Z,1007.37
2018-05-03T04:30:40.302Z,1007.40
2018-05-03T04:32:40.257Z,1007.43
2018-05-03T04:33:41.158Z,1007.41
2018-05-03T04:34:40.910Z,1007.47
2018-05-03T04:35:40.198Z,1007.54
2018-05-03T04:36:40.200Z,1007.54
2018-05-03T04:37:40.300Z,1007.57
2018-05-03T04:38:40.170Z,1007.58
2018-05-03T04:39:40.119Z,1007.63
2018-05-03T04:40:40.099Z,1007.71
2018-05-03T04:41:40.088Z,1007.71
2018-05-03T04:42:40.118Z,1007.70
2018-05-03T04:43:40.040Z,1007.74
2018-05-03T04:44:40.020Z,1007.70
2018-05-03T04:45:40.006Z,1007.71
2018-05-03T04:46:39.977Z,1007.72
2018-05-03T04:47:39.958Z,1007.76
2018-05-03T04:48:39.939Z,1007.78
2018-05-03T04:49:39.921Z,1007.80
2018-05-03T04:50:39.894Z,1007.84
2018-05-03T04:51:39.934Z,1007.85
2018-05-03T04:52:40.427Z,1007.86
2018-05-03T04:53:39.897Z,1007.89
2018-05-03T04:54:39.880Z,1007.92
2018-05-03T04:55:39.801Z,1007.95
2018-05-03T04:56:39.779Z,1007.97
2018-05-03T04:57:39.801Z,1007.98
2018-05-03T04:58:39.743Z,1007.95
2018-05-03T04:59:39.720Z,1007.94
2018-05-03T05:00:39.698Z,1007.95
2018-05-03T05:01:39.678Z,1007.99
2018-05-03T05:02:39.679Z,1008.00
2018-05-03T05:03:39.636Z,1008.03
2018-05-03T05:04:39.709Z,1008.04
2018-05-03T05:05:39.600Z,1008.13
2018-05-03T05:06:39.580Z,1008.14
2018-05-03T05:07:39.571Z,1008.19
2018-05-03T05:08:39.608Z,1008.19
2018-05-03T05:09:39.549Z,1008.18
2018-05-03T05:10:39.498Z,1008.19
2018-05-03T05:11:39.477Z,1008.21
2018-05-03T05:12:39.457Z,1008.24
2018-05-03T05:13:39.439Z,1008.29
2018-05-03T05:14:39.421Z,1008.30
2018-05-03T05:15:39.394Z,1008.35
2018-05-03T05:16:39.379Z,1008.35
2018-05-03T05:17:39.360Z,1008.34
2018-05-03T05:18:39.342Z,1008.37
2018-05-03T05:19:39.319Z,1008.37
2018-05-03T05:20:39.300Z,1008.40
2018-05-03T05:21:39.280Z,1008.42
2018-05-03T05:22:39.257Z,1008.39
2018-05-03T05:23:39.237Z,1008.42
2018-05-03T05:24:39.222Z,1008.44
2018-05-03T05:25:39.198Z,1008.46
2018-05-03T05:26:39.179Z,1008.43
2018-05-03T05:27:39.159Z,1008.42
2018-05-03T05:28:39.137Z,1008.44
2018-05-03T05:29:39.118Z,1008.45
2018-05-03T05:30:39.187Z,1008.48
2018-05-03T05:31:39.078Z,1008.51
2018-05-03T05:32:39.060Z,1008.53
2018-05-03T05:33:39.038Z,1008.55
2018-05-03T05:34:39.020Z,1008.55
2018-05-03T05:35:39.002Z,1008.52
2018-05-03T05:36:38.978Z,1008.59
2018-05-03T05:37:38.963Z,1008.61
2018-05-03T05:38:38.984Z,1008.60
2018-05-03T05:39:38.930Z,1008.61
2018-05-03T05:40:38.902Z,1008.61
2018-05-03T05:41:38.892Z,1008.64
2018-05-03T05:42:38.867Z,1008.63
2018-05-03T05:43:39.428Z,1008.62
2018-05-03T05:44:38.880Z,1008.69
2018-05-03T05:45:38.869Z,1008.71
2018-05-03T05:46:38.806Z,1008.76
2018-05-03T05:47:38.810Z,1008.71
2018-05-03T05:48:38.754Z,1008.75
2018-05-03T05:49:38.718Z,1008.79
2018-05-03T05:50:38.704Z,1008.80
2018-05-03T05:51:38.679Z,1008.87
2018-05-03T05:52:38.659Z,1008.88
2018-05-03T05:53:38.642Z,1008.92
2018-05-03T05:54:38.627Z,1008.97
2018-05-03T05:55:38.604Z,1008.96
2018-05-03T05:56:38.600Z,1009.02
2018-05-03T05:57:38.564Z,1009.04
2018-05-03T05:58:38.540Z,1009.08
2018-05-03T05:59:38.523Z,1009.07
2018-05-03T06:00:38.501Z,1009.08
2018-05-03T06:01:38.481Z,1009.04
2018-05-03T06:02:38.475Z,1009.08
2018-05-03T06:03:38.438Z,1009.12
2018-05-03T06:04:38.419Z,1009.10
2018-05-03T06:05:38.400Z,1009.14
2018-05-03T06:06:38.386Z,1009.12
2018-05-03T06:07:38.437Z,1009.17
2018-05-03T06:08:38.340Z,1009.16
2018-05-03T06:09:38.325Z,1009.19
2018-05-03T06:10:38.303Z,1009.23
2018-05-03T06:11:38.283Z,1009.19
2018-05-03T06:12:38.261Z,1009.20
2018-05-03T06:13:38.247Z,1009.25
2018-05-03T06:14:38.246Z,1009.18
2018-05-03T06:15:38.207Z,1009.24
2018-05-03T06:16:38.184Z,1009.23
2018-05-03T06:17:38.170Z,1009.22
2018-05-03T06:18:38.148Z,1009.24
2018-05-03T06:19:38.129Z,1009.26
2018-05-03T06:20:38.104Z,1009.24
2018-05-03T06:21:38.102Z,1009.24
2018-05-03T06:22:38.063Z,1009.28
2018-05-03T06:23:38.044Z,1009.26
2018-05-03T06:24:38.024Z,1009.28
2018-05-03T06:25:38.007Z,1009.30
2018-05-03T06:26:37.987Z,1009.34
2018-05-03T06:27:37.967Z,1009.39
2018-05-03T06:28:37.949Z,1009.35
2018-05-03T06:29:37.929Z,1009.38
2018-05-03T06:30:37.905Z,1009.39
2018-05-03T06:31:37.889Z,1009.41
2018-05-03T06:32:37.869Z,1009.42
2018-05-03T06:33:37.852Z,1009.46
2018-05-03T06:34:37.830Z,1009.43
2018-05-03T06:35:37.809Z,1009.45
2018-05-03T06:36:37.795Z,1009.43
2018-05-03T06:37:37.778Z,1009.50
2018-05-03T06:38:37.750Z,1009.54
2018-05-03T06:39:37.741Z,1009.54
2018-05-03T06:40:37.712Z,1009.58
2018-05-03T06:41:37.696Z,1009.62
2018-05-03T06:42:37.671Z,1009.64
2018-05-03T06:43:37.686Z,1009.68
2018-05-03T06:44:37.636Z,1009.67
2018-05-03T06:45:37.614Z,1009.65
2018-05-03T06:46:37.593Z,1009.69
2018-05-03T06:47:37.577Z,1009.70
2018-05-03T06:48:37.555Z,1009.68
2018-05-03T06:49:37.543Z,1009.67
2018-05-03T06:50:37.517Z,1009.68
2018-05-03T06:51:37.524Z,1009.68
2018-05-03T06:52:37.483Z,1009.65
2018-05-03T06:53:37.465Z,1009.67
2018-05-03T06:54:37.450Z,1009.68
2018-05-03T06:55:37.506Z,1009.68
2018-05-03T06:56:37.481Z,1009.72
2018-05-03T06:57:37.993Z,1009.73
2018-05-03T06:58:37.439Z,1009.76
2018-05-03T06:59:37.373Z,1009.78
2018-05-03T07:00:37.358Z,1009.81
2018-05-03T07:01:37.305Z,1009.80
2018-05-03T07:02:37.286Z,1009.83
2018-05-03T07:03:37.270Z,1009.81
2018-05-03T07:04:37.296Z,1009.83
2018-05-03T07:05:37.233Z,1009.80
2018-05-03T07:06:37.211Z,1009.79
2018-05-03T07:07:37.226Z,1009.81
2018-05-03T07:08:37.176Z,1009.81
2018-05-03T07:09:37.154Z,1009.83
2018-05-03T07:10:37.150Z,1009.85
2018-05-03T07:11:37.117Z,1009.85
2018-05-03T07:12:37.096Z,1009.84
2018-05-03T07:13:37.082Z,1009.85
2018-05-03T07:14:37.064Z,1009.84
2018-05-03T07:15:37.087Z,1009.82
2018-05-03T07:16:37.019Z,1009.81
2018-05-03T07:17:37.002Z,1009.81
2018-05-03T07:18:36.982Z,1009.82
2018-05-03T07:19:36.972Z,1009.85
2018-05-03T07:20:36.943Z,1009.87
2018-05-03T07:21:36.924Z,1009.86
2018-05-03T07:22:36.914Z,1009.87
2018-05-03T07:23:36.898Z,1009.92
2018-05-03T07:24:36.868Z,1009.90
2018-05-03T07:25:36.849Z,1009.92
2018-05-03T07:26:36.828Z,1009.93
2018-05-03T07:27:36.824Z,1009.96
2018-05-03T07:28:36.792Z,1009.96
2018-05-03T07:29:36.790Z,1009.99
2018-05-03T07:30:36.752Z,1010.01
2018-05-03T07:31:36.742Z,1010.06
2018-05-03T07:32:36.720Z,1010.04
2018-05-03T07:33:36.699Z,1010.05
2018-05-03T07:34:36.687Z,1010.09
2018-05-03T07:35:36.674Z,1010.09
2018-05-03T07:36:36.652Z,1010.09
2018-05-03T07:37:36.624Z,1010.12
2018-05-03T07:38:36.604Z,1010.13
2018-05-03T07:39:36.590Z,1010.15
2018-05-03T07:40:36.650Z,1010.15
2018-05-03T07:41:36.550Z,1010.17
2018-05-03T07:42:36.534Z,1010.16
2018-05-03T07:43:36.515Z,1010.18
2018-05-03T07:44:36.558Z,1010.17
2018-05-03T07:45:36.474Z,1010.18
2018-05-03T07:46:36.456Z,1010.20
2018-05-03T07:47:36.436Z,1010.18
2018-05-03T07:48:36.494Z,1010.13
2018-05-03T07:49:36.427Z,1010.20
2018-05-03T07:50:36.410Z,1010.21
2018-05-03T07:51:36.366Z,1010.22
2018-05-03T07:52:36.352Z,1010.26
2018-05-03T07:53:36.326Z,1010.25
2018-05-03T07:54:36.334Z,1010.25
2018-05-03T07:55:36.289Z,1010.22
2018-05-03T07:56:36.335Z,1010.27
2018-05-03T07:57:36.268Z,1010.29
2018-05-03T07:58:36.270Z,1010.29
2018-05-03T07:59:36.232Z,1010.31
2018-05-03T08:00:36.198Z,1010.30
2018-05-03T08:01:36.180Z,1010.33
2018-05-03T08:02:36.156Z,1010.32
2018-05-03T08:03:36.144Z,1010.30
2018-05-03T08:04:36.119Z,1010.34
2018-05-03T08:05:36.102Z,1010.37
2018-05-03T08:06:36.081Z,1010.37
2018-05-03T08:07:36.064Z,1010.40
2018-05-03T08:08:36.045Z,1010.36
2018-05-03T08:09:36.028Z,1010.40
2018-05-03T08:10:36.025Z,1010.41
2018-05-03T08:11:35.988Z,1010.45
2018-05-03T08:12:36.097Z,1010.43
2018-05-03T08:13:35.952Z,1010.44
2018-05-03T08:14:35.962Z,1010.51
2018-05-03T08:15:35.914Z,1010.53
2018-05-03T08:16:35.895Z,1010.53
2018-05-03T08:17:35.879Z,1010.53
2018-05-03T08:18:35.857Z,1010.54
2018-05-03T08:19:35.868Z,1010.52
2018-05-03T08:20:35.826Z,1010.58
2018-05-03T08:21:35.819Z,1010.59
2018-05-03T08:22:35.813Z,1010.60
2018-05-03T08:23:35.794Z,1010.60
2018-05-03T08:24:35.749Z,1010.58
2018-05-03T08:25:35.733Z,1010.65
2018-05-03T08:26:35.726Z,1010.61
2018-05-03T08:27:35.709Z,1010.58
2018-05-03T08:28:35.712Z,1010.59
2018-05-03T08:29:35.653Z,1010.60
2018-05-03T08:30:35.635Z,1010.62
2018-05-03T08:31:35.615Z,1010.61
2018-05-03T08:32:35.596Z,1010.60
2018-05-03T08:33:35.576Z,1010.66
2018-05-03T08:34:35.560Z,1010.67
2018-05-03T08:35:35.543Z,1010.70
2018-05-03T08:36:35.522Z,1010.70
2018-05-03T08:37:35.502Z,1010.68
2018-05-03T08:38:35.483Z,1010.72
2018-05-03T08:39:35.466Z,1010.74
2018-05-03T08:40:35.445Z,1010.73
2018-05-03T08:41:35.427Z,1010.78
2018-05-03T08:42:35.413Z,1010.80
2018-05-03T08:43:35.393Z,1010.75
2018-05-03T08:44:35.396Z,1010.78
2018-05-03T08:45:35.375Z,1010.76
2018-05-03T08:46:35.337Z,1010.79
2018-05-03T08:47:35.317Z,1010.77
2018-05-03T08:48:35.296Z,1010.81
2018-05-03T08:49:35.286Z,1010.73
2018-05-03T08:50:35.259Z,1010.76
2018-05-03T08:51:35.250Z,1010.80
2018-05-03T08:52:35.223Z,1010.84
2018-05-03T08:53:35.206Z,1010.84
2018-05-03T08:54:35.184Z,1010.85
2018-05-03T08:55:35.179Z,1010.87
2018-05-03T08:56:35.154Z,1010.89
2018-05-03T08:57:35.128Z,1010.91
2018-05-03T08:58:35.115Z,1010.97
2018-05-03T08:59:35.091Z,1010.98
2018-05-03T09:00:35.075Z,1010.97
2018-05-03T09:01:35.059Z,1010.98
2018-05-03T09:02:35.060Z,1010.99
2018-05-03T09:03:35.026Z,1010.96
2018-05-03T09:04:35.000Z,1010.98
2018-05-03T09:05:34.983Z,1010.93
2018-05-03T09:06:34.964Z,1010.95
2018-05-03T09:07:34.995Z,1011.01
2018-05-03T09:08:34.925Z,1011.00
2018-05-03T09:09:34.917Z,1011.02
2018-05-03T09:10:34.889Z,1010.99
2018-05-03T09:11:34.881Z,1011.00
2018-05-03T09:12:34.857Z,1011.01
2018-05-03T09:13:34.836Z,1011.02
2018-05-03T09:14:34.815Z,1011.00
2018-05-03T09:15:34.806Z,1011.05
2018-05-03T09:16:34.788Z,1011.06
2018-05-03T09:17:34.764Z,1011.10
2018-05-03T09:18:34.781Z,1011.07
2018-05-03T09:19:34.752Z,1011.10
2018-05-03T09:20:34.713Z,1011.13
2018-05-03T09:21:34.688Z,1011.14
2018-05-03T09:22:34.669Z,1011.13
2018-05-03T09:23:34.659Z,1011.12
2018-05-03T09:24:34.642Z,1011.12
2018-05-03T09:25:34.617Z,1011.10
2018-05-03T09:26:34.598Z,1011.12
2018-05-03T09:27:34.582Z,1011.15
2018-05-03T09:28:34.561Z,1011.10
2018-05-03T09:29:34.544Z,1011.13
2018-05-03T09:30:34.525Z,1011.17
2018-05-03T09:31:34.508Z,1011.21
2018-05-03T09:32:34.500Z,1011.16
2018-05-03T09:33:34.473Z,1011.20
2018-05-03T09:34:34.455Z,1011.24
2018-05-03T09:35:34.446Z,1011.24
2018-05-03T09:36:34.431Z,1011.17
2018-05-03T09:37:34.400Z,1011.18
2018-05-03T09:38:34.381Z,1011.22
2018-05-03T09:39:34.366Z,1011.20
2018-05-03T09:40:34.351Z,1011.18
2018-05-03T09:41:34.352Z,1011.18
2018-05-03T09:42:34.310Z,1011.13
2018-05-03T09:43:34.294Z,1011.17
2018-05-03T09:44:34.283Z,1011.16
2018-05-03T09:45:34.262Z,1011.23
2018-05-03T09:46:34.242Z,1011.27
2018-05-03T09:47:34.225Z,1011.26
2018-05-03T09:48:34.208Z,1011.25
2018-05-03T09:49:34.193Z,1011.27
2018-05-03T09:50:34.171Z,1011.31
2018-05-03T09:51:34.152Z,1011.29
2018-05-03T09:52:34.197Z,1011.32
2018-05-03T09:53:34.119Z,1011.30
2018-05-03T09:54:34.097Z,1011.30
2018-05-03T09:55:34.083Z,1011.30
2018-05-03T09:56:34.070Z,1011.29
2018-05-03T09:57:34.050Z,1011.31
2018-05-03T09:58:34.029Z,1011.35
2018-05-03T09:59:34.009Z,1011.35
2018-05-03T10:00:33.999Z,1011.41
2018-05-03T10:01:33.985Z,1011.42
2018-05-03T10:02:33.959Z,1011.49
2018-05-03T10:03:33.940Z,1011.50
2018-05-03T10:04:33.928Z,1011.48
2018-05-03T10:05:33.912Z,1011.49
2018-05-03T10:06:33.891Z,1011.52
2018-05-03T10:07:33.870Z,1011.56
2018-05-03T10:08:33.857Z,1011.57
2018-05-03T10:09:33.841Z,1011.60
2018-05-03T10:10:33.824Z,1011.60
2018-05-03T10:11:33.800Z,1011.59
2018-05-03T10:12:33.787Z,1011.58
2018-05-03T10:13:33.770Z,1011.56
2018-05-03T10:14:33.794Z,1011.57
2018-05-03T10:15:33.733Z,1011.50
2018-05-03T10:16:33.718Z,1011.58
2018-05-03T10:17:33.717Z,1011.61
2018-05-03T10:18:33.694Z,1011.68
2018-05-03T10:19:33.665Z,1011.79
2018-05-03T10:20:33.646Z,1011.74
2018-05-03T10:21:33.634Z,1012.07
2018-05-03T10:22:33.614Z,1012.00
2018-05-03T10:23:33.600Z,1011.92
2018-05-03T10:24:33.582Z,1011.91
2018-05-03T10:25:33.564Z,1012.10
2018-05-03T10:26:33.550Z,1011.93
2018-05-03T10:27:33.535Z,1011.90
2018-05-03T10:28:33.517Z,1011.82
2018-05-03T10:29:33.500Z,1011.94
2018-05-03T10:30:33.485Z,1012.14
2018-05-03T10:31:33.468Z,1012.14
2018-05-03T10:32:33.450Z,1012.30
2018-05-03T10:33:33.445Z,1012.27
2018-05-03T10:34:33.421Z,1012.29
2018-05-03T10:35:33.405Z,1012.18
2018-05-03T10:36:33.395Z,1012.04
2018-05-03T10:37:33.379Z,1012.04
2018-05-03T10:38:33.363Z,1011.88
2018-05-03T10:39:33.354Z,1011.92
2018-05-03T10:40:33.337Z,1012.04
2018-05-03T10:41:33.326Z,1012.24
2018-05-03T10:42:33.315Z,1011.91
2018-05-03T10:43:33.294Z,1012.12
2018-05-03T10:44:33.281Z,1012.02
2018-05-03T10:45:33.278Z,1011.83
2018-05-03T10:46:33.260Z,1012.25
2018-05-03T10:47:33.240Z,1011.72
2018-05-03T10:48:33.229Z,1011.65
2018-05-03T10:49:33.220Z,1011.69
2018-05-03T10:50:33.206Z,1011.68
2018-05-03T10:51:33.192Z,1011.67
2018-05-03T10:52:33.185Z,1011.64
2018-05-03T10:53:33.170Z,1011.65
2018-05-03T10:54:33.155Z,1011.59
2018-05-03T10:55:33.147Z,1011.62
2018-05-03T10:56:33.132Z,1011.70
2018-05-03T10:57:33.160Z,1011.90
2018-05-03T10:58:33.107Z,1012.04
2018-05-03T10:59:33.096Z,1012.02
2018-05-03T11:00:33.079Z,1012.05
2018-05-03T11:01:33.067Z,1012.10
2018-05-03T11:02:33.051Z,1012.01
2018-05-03T11:03:33.061Z,1012.03
2018-05-03T11:04:33.067Z,1012.08
2018-05-03T11:05:33.099Z,1011.86
2018-05-03T11:06:33.005Z,1011.80
2018-05-03T11:07:32.996Z,1011.89
2018-05-03T11:08:32.988Z,1011.89
2018-05-03T11:09:32.977Z,1012.04
2018-05-03T11:10:32.966Z,1011.79
2018-05-03T11:11:32.954Z,1011.97
2018-05-03T11:12:32.954Z,1011.75
2018-05-03T11:13:32.940Z,1011.80
2018-05-03T11:14:32.966Z,1011.76
2018-05-03T11:15:32.915Z,1011.81
2018-05-03T11:16:32.909Z,1012.01
2018-05-03T11:17:32.898Z,1012.04
2018-05-03T11:18:32.889Z,1011.92
2018-05-03T11:19:32.882Z,1012.01
2018-05-03T11:20:32.879Z,1012.05
2018-05-03T11:21:32.860Z,1012.19
2018-05-03T11:22:32.848Z,1012.10
2018-05-03T11:23:32.840Z,1011.98
2018-05-03T11:24:32.879Z,1012.03
2018-05-03T11:25:32.825Z,1012.01
2018-05-03T11:26:32.817Z,1011.95
2018-05-03T11:27:32.808Z,1012.05
2018-05-03T11:28:32.802Z,1012.07
2018-05-03T11:29:32.795Z,1012.11
2018-05-03T11:30:32.790Z,1011.86
2018-05-03T11:31:32.814Z,1012.13
2018-05-03T11:32:32.829Z,1012.21
2018-05-03T11:33:32.768Z,1012.12
2018-05-03T11:34:32.759Z,1012.17
2018-05-03T11:35:32.763Z,1012.19
2018-05-03T11:36:32.751Z,1012.23
2018-05-03T11:37:32.741Z,1012.20
2018-05-03T11:38:32.763Z,1012.17
2018-05-03T11:39:32.728Z,1012.16
2018-05-03T11:40:32.798Z,1012.01
2018-05-03T11:41:32.722Z,1012.22
2018-05-03T11:42:32.718Z,1012.12
2018-05-03T11:43:32.709Z,1012.20
2018-05-03T11:44:32.705Z,1011.85
2018-05-03T11:45:32.705Z,1011.79
2018-05-03T11:46:32.698Z,1011.86
2018-05-03T11:47:32.692Z,1011.86
2018-05-03T11:48:32.723Z,1011.83
2018-05-03T11:49:32.679Z,1011.81
2018-05-03T11:50:32.675Z,1011.91
2018-05-03T11:51:32.669Z,1012.05
2018-05-03T11:52:32.663Z,1012.07
2018-05-03T11:53:32.668Z,1011.91
2018-05-03T11:54:32.654Z,1011.88
2018-05-03T11:55:32.651Z,1011.84
2018-05-03T11:56:32.639Z,1011.90
2018-05-03T11:57:32.625Z,1012.11
2018-05-03T11:58:32.624Z,1012.07
2018-05-03T11:59:32.609Z,1011.97
2018-05-03T12:00:32.609Z,1012.09
2018-05-03T12:01:32.595Z,1012.01
2018-05-03T12:02:32.658Z,1012.03
2018-05-03T12:03:32.580Z,1011.96
2018-05-03T12:04:32.572Z,1011.96
2018-05-03T12:05:32.573Z,1012.04
2018-05-03T12:06:32.555Z,1012.12